createdAt,value
2022-12-31T00:00:00.224Z,12.5
2022-12-31T00:01:00.866Z,12.5
2022-12-31T00:02:00.323Z,12.4
2022-12-31T00:03:00.404Z,12.4
2022-12-31T00:04:00.231Z,12.4
2022-12-31T00:05:00.282Z,12.4
2022-12-31T00:06:00.647Z,12.5
2022-12-31T00:07:00.262Z,12.5
2022-12-31T00:08:00.250Z,12.5
2022-12-31T00:09:01.450Z,12.5
2022-12-31T00:10:00.467Z,12.4
2022-12-31T00:11:00.231Z,12.4
2022-12-31T00:12:00.259Z,12.5
2022-12-31T00:13:00.245Z,12.5
2022-12-31T00:14:00.592Z,12.5
2022-12-31T00:15:00.264Z,12.5
2022-12-31T00:16:12.519Z,12.5
2022-12-31T00:17:00.307Z,12.5
2022-12-31T00:18:00.266Z,12.5
2022-12-31T00:19:00.270Z,12.5
2022-12-31T00:20:00.304Z,12.5
2022-12-31T00:21:03.251Z,12.5
2022-12-31T00:22:00.247Z,12.6
2022-12-31T00:23:00.233Z,12.6
2022-12-31T00:24:00.976Z,12.5
2022-12-31T00:25:00.486Z,12.5
2022-12-31T00:26:09.747Z,12.5
2022-12-31T00:27:00.426Z,12.5
2022-12-31T00:28:00.332Z,12.5
2022-12-31T00:29:00.835Z,12.5
2022-12-31T00:30:04.417Z,12.5
2022-12-31T00:31:04.327Z,12.5
2022-12-31T00:32:00.241Z,12.6
2022-12-31T00:33:00.231Z,12.6
2022-12-31T00:34:00.289Z,12.6
2022-12-31T00:35:00.237Z,12.6
2022-12-31T00:36:04.745Z,12.4
2022-12-31T00:37:00.240Z,12.4
2022-12-31T00:38:00.229Z,12.4
2022-12-31T00:39:00.884Z,12.4
2022-12-31T00:40:00.280Z,12.5
2022-12-31T00:41:00.324Z,12.5
2022-12-31T00:42:00.252Z,12.5
2022-12-31T00:43:00.316Z,12.5
2022-12-31T00:44:00.296Z,12.5
2022-12-31T00:45:00.228Z,12.5
2022-12-31T00:46:00.363Z,12.5
2022-12-31T00:47:00.238Z,12.5
2022-12-31T00:48:00.227Z,12.5
2022-12-31T00:49:00.238Z,12.5
2022-12-31T00:50:00.256Z,12.5
2022-12-31T00:51:00.826Z,12.5
2022-12-31T00:52:00.278Z,12.6
2022-12-31T00:53:00.226Z,12.6
2022-12-31T00:54:00.263Z,12.5
2022-12-31T00:55:00.294Z,12.5
2022-12-31T00:56:04.922Z,12.7
2022-12-31T00:57:00.262Z,12.7
2022-12-31T00:58:00.226Z,12.6
2022-12-31T00:59:00.340Z,12.6
2022-12-31T01:00:00.354Z,12.6
2022-12-31T01:01:08.592Z,12.6
2022-12-31T01:02:00.382Z,12.6
2022-12-31T01:03:00.454Z,12.6
2022-12-31T01:04:03.630Z,12.6
2022-12-31T01:05:00.275Z,12.6
2022-12-31T01:06:00.579Z,12.6
2022-12-31T01:07:00.298Z,12.6
2022-12-31T01:08:00.451Z,12.6
2022-12-31T01:09:00.241Z,12.6
2022-12-31T01:10:00.249Z,12.6
2022-12-31T01:11:00.519Z,12.6
2022-12-31T01:12:00.259Z,12.6
2022-12-31T01:13:00.274Z,12.6
2022-12-31T01:14:03.429Z,12.6
2022-12-31T01:15:00.254Z,12.6
2022-12-31T01:16:10.224Z,12.6
2022-12-31T01:17:00.242Z,12.6
2022-12-31T01:18:00.478Z,12.6
2022-12-31T01:19:01.958Z,12.6
2022-12-31T01:20:00.236Z,12.5
2022-12-31T01:21:01.488Z,12.5
2022-12-31T01:22:00.236Z,12.6
2022-12-31T01:23:00.226Z,12.6
2022-12-31T01:24:00.350Z,12.6
2022-12-31T01:25:00.259Z,12.6
2022-12-31T01:26:01.136Z,12.7
2022-12-31T01:27:00.256Z,12.7
2022-12-31T01:28:00.256Z,12.6
2022-12-31T01:29:00.256Z,12.6
2022-12-31T01:30:00.255Z,12.6
2022-12-31T01:31:08.845Z,12.6
2022-12-31T01:32:00.264Z,12.6
2022-12-31T01:33:00.228Z,12.6
2022-12-31T01:34:00.416Z,12.6
2022-12-31T01:35:00.242Z,12.6
2022-12-31T01:36:00.949Z,12.6
2022-12-31T01:37:00.254Z,12.6
2022-12-31T01:38:00.287Z,12.6
2022-12-31T01:39:00.973Z,12.6
2022-12-31T01:40:00.257Z,12.6
2022-12-31T01:41:00.505Z,12.6
2022-12-31T01:42:00.229Z,12.6
2022-12-31T01:43:00.251Z,12.6
2022-12-31T01:44:01.791Z,12.6
2022-12-31T01:45:00.275Z,12.6
2022-12-31T01:46:00.363Z,12.6
2022-12-31T01:47:01.520Z,12.6
2022-12-31T01:48:00.294Z,12.6
2022-12-31T01:49:02.297Z,12.6
2022-12-31T01:50:05.478Z,12.6
2022-12-31T01:51:00.443Z,12.6
2022-12-31T01:52:04.856Z,12.5
2022-12-31T01:53:02.256Z,12.5
2022-12-31T01:54:01.750Z,12.6
2022-12-31T01:55:04.827Z,12.6
2022-12-31T01:56:01.172Z,12.5
2022-12-31T01:57:00.551Z,12.5
2022-12-31T01:58:03.747Z,12.6
2022-12-31T01:59:03.983Z,12.6
2022-12-31T02:00:00.680Z,12.5
2022-12-31T02:01:00.880Z,12.5
2022-12-31T02:02:00.408Z,12.6
2022-12-31T02:03:00.890Z,12.6
2022-12-31T02:04:04.135Z,12.6
2022-12-31T02:05:01.675Z,12.6
2022-12-31T02:06:05.576Z,12.5
2022-12-31T02:07:02.084Z,12.5
2022-12-31T02:08:01.497Z,12.4
2022-12-31T02:09:00.606Z,12.4
2022-12-31T02:10:00.582Z,12.3
2022-12-31T02:11:00.475Z,12.3
2022-12-31T02:12:00.319Z,12.2
2022-12-31T02:13:00.474Z,12.2
2022-12-31T02:14:03.540Z,12.2
2022-12-31T02:15:00.381Z,12.3
2022-12-31T02:16:00.402Z,12.3
2022-12-31T02:17:07.744Z,12.3
2022-12-31T02:18:06.185Z,12.3
2022-12-31T02:19:10.188Z,12.3
2022-12-31T02:20:00.234Z,12.2
2022-12-31T02:21:10.188Z,12.2
2022-12-31T02:22:07.638Z,12.2
2022-12-31T02:23:10.195Z,12.2
2022-12-31T02:24:10.174Z,12.2
2022-12-31T02:25:07.607Z,12.2
2022-12-31T02:26:09.196Z,12.2
2022-12-31T02:27:02.316Z,12.2
2022-12-31T02:28:08.080Z,12.1
2022-12-31T02:29:00.239Z,12.1
2022-12-31T02:30:00.272Z,12.1
2022-12-31T02:31:05.684Z,12.1
2022-12-31T02:32:03.683Z,12.0
2022-12-31T02:33:05.282Z,12.0
2022-12-31T02:34:05.756Z,12.1
2022-12-31T02:35:05.965Z,12.1
2022-12-31T02:36:02.044Z,12.0
2022-12-31T02:37:02.462Z,12.0
2022-12-31T02:38:03.635Z,12.0
2022-12-31T02:39:02.057Z,12.0
2022-12-31T02:40:00.667Z,12.0
2022-12-31T02:41:00.472Z,12.0
2022-12-31T02:42:00.784Z,12.0
2022-12-31T02:43:00.277Z,12.0
2022-12-31T02:44:00.778Z,12.0
2022-12-31T02:45:00.269Z,12.0
2022-12-31T02:46:10.265Z,12.0
2022-12-31T02:47:07.561Z,12.0
2022-12-31T02:48:10.189Z,11.9
2022-12-31T02:49:07.337Z,11.9
2022-12-31T02:50:00.208Z,12.0
2022-12-31T02:51:10.159Z,12.0
2022-12-31T02:52:06.663Z,12.0
2022-12-31T02:53:10.192Z,12.0
2022-12-31T02:54:10.182Z,12.0
2022-12-31T02:55:07.517Z,12.0
2022-12-31T02:56:10.192Z,12.1
2022-12-31T02:57:06.930Z,12.1
2022-12-31T02:58:06.857Z,11.9
2022-12-31T02:59:00.234Z,11.9
2022-12-31T03:00:02.189Z,11.9
2022-12-31T03:01:00.557Z,11.9
2022-12-31T03:02:03.814Z,11.9
2022-12-31T03:03:01.114Z,11.9
2022-12-31T03:04:00.388Z,11.8
2022-12-31T03:05:01.222Z,11.8
2022-12-31T03:06:02.016Z,11.9
2022-12-31T03:07:01.999Z,11.9
2022-12-31T03:08:00.259Z,11.9
2022-12-31T03:09:01.435Z,11.9
2022-12-31T03:10:00.668Z,11.8
2022-12-31T03:11:00.236Z,11.8
2022-12-31T03:12:00.637Z,11.8
2022-12-31T03:13:00.290Z,11.8
2022-12-31T03:14:00.268Z,11.8
2022-12-31T03:15:00.457Z,11.8
2022-12-31T03:16:00.308Z,11.8
2022-12-31T03:17:00.234Z,11.8
2022-12-31T03:18:01.252Z,11.8
2022-12-31T03:19:00.226Z,11.8
2022-12-31T03:20:00.233Z,11.8
2022-12-31T03:21:00.251Z,11.8
2022-12-31T03:22:00.285Z,11.8
2022-12-31T03:23:00.703Z,11.8
2022-12-31T03:24:00.235Z,11.8
2022-12-31T03:25:02.813Z,11.8
2022-12-31T03:26:00.554Z,11.9
2022-12-31T03:27:00.227Z,11.9
2022-12-31T03:28:01.572Z,11.8
2022-12-31T03:29:00.229Z,11.8
2022-12-31T03:30:00.273Z,11.9
2022-12-31T03:31:01.082Z,11.9
2022-12-31T03:32:00.279Z,11.9
2022-12-31T03:33:00.253Z,11.9
2022-12-31T03:34:00.274Z,11.8
2022-12-31T03:35:00.229Z,11.8
2022-12-31T03:36:04.545Z,11.8
2022-12-31T03:37:00.228Z,11.8
2022-12-31T03:38:00.772Z,11.8
2022-12-31T03:39:00.228Z,11.8
2022-12-31T03:40:00.254Z,11.8
2022-12-31T03:41:00.261Z,11.8
2022-12-31T03:42:00.252Z,11.8
2022-12-31T03:43:00.230Z,11.8
2022-12-31T03:44:00.221Z,11.8
2022-12-31T03:45:00.255Z,11.8
2022-12-31T03:46:00.289Z,11.8
2022-12-31T03:47:00.229Z,11.8
2022-12-31T03:48:00.793Z,11.8
2022-12-31T03:49:00.250Z,11.8
2022-12-31T03:50:00.377Z,11.8
2022-12-31T03:51:00.256Z,11.8
2022-12-31T03:52:00.225Z,11.8
2022-12-31T03:53:00.746Z,11.8
2022-12-31T03:54:00.261Z,11.8
2022-12-31T03:55:00.369Z,11.8
2022-12-31T03:56:00.233Z,11.7
2022-12-31T03:57:00.528Z,11.7
2022-12-31T03:58:00.256Z,11.8
2022-12-31T03:59:00.233Z,11.8
2022-12-31T04:00:00.297Z,11.8
2022-12-31T04:01:00.399Z,11.8
2022-12-31T04:02:00.372Z,11.8
2022-12-31T04:03:00.370Z,11.8
2022-12-31T04:04:00.260Z,11.9
2022-12-31T04:05:00.236Z,11.9
2022-12-31T04:06:00.249Z,11.9
2022-12-31T04:07:00.264Z,11.9
2022-12-31T04:08:00.240Z,11.9
2022-12-31T04:09:00.290Z,11.9
2022-12-31T04:10:00.226Z,11.9
2022-12-31T04:11:00.258Z,11.9
2022-12-31T04:12:00.227Z,11.8
2022-12-31T04:13:00.238Z,11.8
2022-12-31T04:14:00.261Z,11.9
2022-12-31T04:15:00.464Z,11.9
2022-12-31T04:16:00.337Z,11.9
2022-12-31T04:17:00.355Z,11.9
2022-12-31T04:18:00.235Z,11.9
2022-12-31T04:19:00.268Z,11.9
2022-12-31T04:20:00.307Z,11.9
2022-12-31T04:21:01.202Z,11.9
2022-12-31T04:22:00.271Z,11.9
2022-12-31T04:23:00.252Z,11.9
2022-12-31T04:24:00.270Z,12.0
2022-12-31T04:25:00.257Z,12.0
2022-12-31T04:26:00.311Z,12.0
2022-12-31T04:27:06.997Z,12.0
2022-12-31T04:28:00.266Z,11.9
2022-12-31T04:29:00.293Z,11.9
2022-12-31T04:30:00.230Z,12.0
2022-12-31T04:31:00.241Z,12.0
2022-12-31T04:32:00.502Z,11.9
2022-12-31T04:33:00.268Z,11.9
2022-12-31T04:34:00.280Z,11.9
2022-12-31T04:35:00.225Z,11.9
2022-12-31T04:36:01.097Z,12.0
2022-12-31T04:37:00.283Z,12.0
2022-12-31T04:38:00.231Z,11.9
2022-12-31T04:39:00.224Z,11.9
2022-12-31T04:40:05.378Z,11.9
2022-12-31T04:41:00.350Z,11.9
2022-12-31T04:42:00.316Z,11.9
2022-12-31T04:43:00.243Z,11.9
2022-12-31T04:44:00.306Z,11.9
2022-12-31T04:45:00.297Z,11.9
2022-12-31T04:46:00.282Z,11.9
2022-12-31T04:47:00.248Z,11.9
2022-12-31T04:48:00.265Z,11.8
2022-12-31T04:49:00.270Z,11.8
2022-12-31T04:50:00.237Z,11.8
2022-12-31T04:51:00.356Z,11.8
2022-12-31T04:52:00.267Z,11.9
2022-12-31T04:53:00.224Z,11.9
2022-12-31T04:54:00.307Z,11.9
2022-12-31T04:55:00.243Z,11.9
2022-12-31T04:56:00.289Z,11.9
2022-12-31T04:57:00.270Z,11.9
2022-12-31T04:58:00.271Z,11.9
2022-12-31T04:59:00.234Z,11.9
2022-12-31T05:00:00.247Z,11.9
2022-12-31T05:01:00.683Z,11.9
2022-12-31T05:02:00.462Z,11.9
2022-12-31T05:03:00.298Z,11.9
2022-12-31T05:04:00.252Z,11.9
2022-12-31T05:05:00.236Z,11.9
2022-12-31T05:06:01.193Z,11.9
2022-12-31T05:07:00.258Z,11.9
2022-12-31T05:08:00.252Z,11.8
2022-12-31T05:09:00.245Z,11.8
2022-12-31T05:10:00.248Z,11.8
2022-12-31T05:11:00.242Z,11.8
2022-12-31T05:12:00.228Z,11.8
2022-12-31T05:13:00.227Z,11.8
2022-12-31T05:14:00.233Z,11.8
2022-12-31T05:15:00.318Z,11.8
2022-12-31T05:16:00.878Z,11.9
2022-12-31T05:17:00.369Z,11.9
2022-12-31T05:18:00.250Z,11.8
2022-12-31T05:19:00.257Z,11.8
2022-12-31T05:20:00.265Z,11.8
2022-12-31T05:21:00.329Z,11.8
2022-12-31T05:22:00.273Z,11.9
2022-12-31T05:23:00.523Z,11.9
2022-12-31T05:24:00.266Z,11.9
2022-12-31T05:25:00.259Z,11.9
2022-12-31T05:26:00.293Z,11.9
2022-12-31T05:27:00.498Z,11.9
2022-12-31T05:28:00.311Z,11.9
2022-12-31T05:29:00.292Z,11.9
2022-12-31T05:30:00.268Z,11.9
2022-12-31T05:31:00.323Z,11.9
2022-12-31T05:32:00.237Z,11.9
2022-12-31T05:33:00.282Z,11.9
2022-12-31T05:34:00.225Z,11.9
2022-12-31T05:35:00.549Z,11.9
2022-12-31T05:36:00.300Z,11.9
2022-12-31T05:37:00.258Z,11.9
2022-12-31T05:38:00.349Z,11.9
2022-12-31T05:39:00.236Z,11.9
2022-12-31T05:40:00.301Z,11.9
2022-12-31T05:41:02.822Z,11.9
2022-12-31T05:42:00.246Z,11.9
2022-12-31T05:43:00.240Z,11.9
2022-12-31T05:44:00.244Z,12.0
2022-12-31T05:45:00.241Z,12.0
2022-12-31T05:46:00.900Z,11.9
2022-12-31T05:47:00.252Z,11.9
2022-12-31T05:48:00.302Z,12.0
2022-12-31T05:49:00.251Z,12.0
2022-12-31T05:50:00.252Z,11.9
2022-12-31T05:51:00.545Z,11.9
2022-12-31T05:52:00.245Z,11.9
2022-12-31T05:53:00.255Z,11.9
2022-12-31T05:54:00.283Z,11.9
2022-12-31T05:55:00.317Z,11.9
2022-12-31T05:56:00.259Z,11.9
2022-12-31T05:57:00.252Z,11.9
2022-12-31T05:58:00.266Z,11.9
2022-12-31T05:59:00.263Z,11.9
2022-12-31T06:00:00.244Z,12.1
2022-12-31T06:01:00.332Z,12.1
2022-12-31T06:02:00.252Z,12.1
2022-12-31T06:03:00.410Z,12.1
2022-12-31T06:04:00.346Z,12.1
2022-12-31T06:05:00.323Z,12.1
2022-12-31T06:06:00.228Z,12.1
2022-12-31T06:07:00.235Z,12.1
2022-12-31T06:08:00.255Z,12.1
2022-12-31T06:09:00.265Z,12.1
2022-12-31T06:10:00.233Z,12.2
2022-12-31T06:11:00.234Z,12.2
2022-12-31T06:12:00.232Z,12.2
2022-12-31T06:13:00.237Z,12.2
2022-12-31T06:14:00.247Z,12.3
2022-12-31T06:15:00.484Z,12.3
2022-12-31T06:16:04.330Z,12.3
2022-12-31T06:17:00.788Z,12.3
2022-12-31T06:18:00.247Z,12.3
2022-12-31T06:19:00.780Z,12.3
2022-12-31T06:20:01.157Z,12.3
2022-12-31T06:21:00.264Z,12.3
2022-12-31T06:22:00.257Z,12.4
2022-12-31T06:23:00.266Z,12.4
2022-12-31T06:24:00.227Z,12.4
2022-12-31T06:25:00.270Z,12.4
2022-12-31T06:26:01.129Z,12.4
2022-12-31T06:27:00.271Z,12.4
2022-12-31T06:28:00.228Z,12.6
2022-12-31T06:29:00.263Z,12.6
2022-12-31T06:30:00.224Z,12.5
2022-12-31T06:31:01.078Z,12.5
2022-12-31T06:32:00.233Z,12.5
2022-12-31T06:33:00.255Z,12.5
2022-12-31T06:34:00.232Z,12.7
2022-12-31T06:35:00.267Z,12.7
2022-12-31T06:36:01.680Z,12.8
2022-12-31T06:37:00.234Z,12.8
2022-12-31T06:38:00.313Z,12.9
2022-12-31T06:39:00.779Z,12.9
2022-12-31T06:40:00.326Z,12.9
2022-12-31T06:41:03.765Z,12.9
2022-12-31T06:42:00.262Z,12.9
2022-12-31T06:43:00.629Z,12.9
2022-12-31T06:44:00.266Z,13.1
2022-12-31T06:45:00.263Z,13.1
2022-12-31T06:46:02.148Z,13.1
2022-12-31T06:47:00.241Z,13.1
2022-12-31T06:48:00.233Z,13.1
2022-12-31T06:49:00.327Z,13.1
2022-12-31T06:50:00.224Z,13.2
2022-12-31T06:51:04.650Z,13.2
2022-12-31T06:52:00.253Z,13.2
2022-12-31T06:53:00.221Z,13.2
2022-12-31T06:54:00.296Z,13.2
2022-12-31T06:55:00.474Z,13.2
2022-12-31T06:56:04.541Z,13.2
2022-12-31T06:57:00.323Z,13.2
2022-12-31T06:58:00.362Z,13.3
2022-12-31T06:59:00.483Z,13.3
2022-12-31T07:00:00.444Z,13.3
2022-12-31T07:01:10.244Z,13.3
2022-12-31T07:02:00.349Z,13.4
2022-12-31T07:03:03.557Z,13.4
2022-12-31T07:04:10.156Z,13.4
2022-12-31T07:05:06.865Z,13.4
2022-12-31T07:06:05.434Z,13.3
2022-12-31T07:07:10.163Z,13.3
2022-12-31T07:08:08.554Z,13.4
2022-12-31T07:09:09.807Z,13.4
2022-12-31T07:10:00.294Z,13.4
2022-12-31T07:11:04.153Z,13.4
2022-12-31T07:12:05.355Z,13.6
2022-12-31T07:13:10.186Z,13.6
2022-12-31T07:14:10.159Z,13.6
2022-12-31T07:15:04.660Z,13.6
2022-12-31T07:16:10.206Z,13.6
2022-12-31T07:17:00.233Z,13.6
2022-12-31T07:18:00.206Z,13.7
2022-12-31T07:19:01.233Z,13.7
2022-12-31T07:20:04.192Z,13.7
2022-12-31T07:21:00.379Z,13.7
2022-12-31T07:22:01.531Z,13.6
2022-12-31T07:24:00.434Z,13.6
2022-12-31T07:25:00.529Z,13.6
2022-12-31T07:26:09.670Z,13.6
2022-12-31T07:27:10.162Z,13.6
2022-12-31T07:28:10.200Z,13.6
2022-12-31T07:29:01.259Z,13.6
2022-12-31T07:30:03.698Z,13.6
2022-12-31T07:31:01.293Z,13.6
2022-12-31T07:32:01.253Z,13.7
2022-12-31T07:33:10.161Z,13.7
2022-12-31T07:34:08.223Z,13.5
2022-12-31T07:35:10.159Z,13.5
2022-12-31T07:36:07.713Z,13.5
2022-12-31T07:37:06.643Z,13.5
2022-12-31T07:38:03.515Z,13.5
2022-12-31T07:39:07.653Z,13.5
2022-12-31T07:40:10.187Z,13.7
2022-12-31T07:41:10.348Z,13.7
2022-12-31T07:42:05.205Z,13.8
2022-12-31T07:43:10.187Z,13.8
2022-12-31T07:44:10.186Z,13.8
2022-12-31T07:45:02.959Z,13.8
2022-12-31T07:46:09.945Z,13.7
2022-12-31T07:47:02.257Z,13.7
2022-12-31T07:48:02.692Z,13.7
2022-12-31T07:49:00.522Z,13.7
2022-12-31T07:50:00.476Z,13.6
2022-12-31T07:51:00.397Z,13.6
2022-12-31T07:52:00.444Z,13.6
2022-12-31T07:53:00.336Z,13.6
2022-12-31T07:54:00.258Z,13.6
2022-12-31T07:55:00.228Z,13.6
2022-12-31T07:56:01.187Z,13.7
2022-12-31T07:57:00.381Z,13.7
2022-12-31T07:58:04.913Z,13.7
2022-12-31T07:59:01.229Z,13.7
2022-12-31T08:00:10.184Z,13.7
2022-12-31T08:01:00.818Z,13.7
2022-12-31T08:02:10.223Z,13.7
2022-12-31T08:03:10.200Z,13.7
2022-12-31T08:04:10.162Z,13.6
2022-12-31T08:05:10.181Z,13.6
2022-12-31T08:06:10.156Z,13.6
2022-12-31T08:07:10.169Z,13.6
2022-12-31T08:08:10.157Z,13.6
2022-12-31T08:09:10.198Z,13.6
2022-12-31T08:10:05.992Z,13.7
2022-12-31T08:11:10.201Z,13.7
2022-12-31T08:12:00.872Z,13.6
2022-12-31T08:13:02.150Z,13.6
2022-12-31T08:14:00.742Z,13.6
2022-12-31T08:15:00.622Z,13.6
2022-12-31T08:16:01.220Z,13.6
2022-12-31T08:17:00.333Z,13.6
2022-12-31T08:18:00.343Z,13.7
2022-12-31T08:19:00.280Z,13.7
2022-12-31T08:20:00.441Z,13.6
2022-12-31T08:21:10.156Z,13.6
2022-12-31T08:22:01.238Z,13.6
2022-12-31T08:23:00.242Z,13.6
2022-12-31T08:24:10.191Z,13.6
2022-12-31T08:25:00.236Z,13.6
2022-12-31T08:26:10.201Z,13.6
2022-12-31T08:27:01.226Z,13.6
2022-12-31T08:28:01.280Z,13.6
2022-12-31T08:29:00.235Z,13.6
2022-12-31T08:30:10.216Z,13.6
2022-12-31T08:31:02.859Z,13.6
2022-12-31T08:32:00.261Z,13.5
2022-12-31T08:33:03.509Z,13.5
2022-12-31T08:34:06.507Z,13.6
2022-12-31T08:35:10.181Z,13.6
2022-12-31T08:39:06.320Z,13.4
2022-12-31T08:40:01.435Z,13.4
2022-12-31T08:41:06.693Z,13.4
2022-12-31T08:42:02.515Z,13.5
2022-12-31T08:43:06.170Z,13.5
2022-12-31T08:44:10.356Z,13.4
2022-12-31T08:45:10.319Z,13.4
2022-12-31T08:46:01.573Z,13.4
2022-12-31T08:47:01.407Z,13.5
2022-12-31T08:48:03.073Z,13.5
2022-12-31T08:49:00.491Z,13.5
2022-12-31T08:50:00.499Z,13.6
2022-12-31T08:51:00.445Z,13.6
2022-12-31T08:52:00.913Z,13.6
2022-12-31T08:53:00.507Z,13.6
2022-12-31T08:54:00.615Z,13.6
2022-12-31T08:55:00.577Z,13.6
2022-12-31T08:56:06.914Z,13.6
2022-12-31T08:57:00.390Z,13.6
2022-12-31T08:58:07.644Z,13.7
2022-12-31T08:59:10.347Z,13.7
2022-12-31T09:00:00.390Z,13.6
2022-12-31T09:01:01.063Z,13.6
2022-12-31T09:02:01.544Z,13.5
2022-12-31T09:03:10.348Z,13.5
2022-12-31T09:04:08.927Z,13.5
2022-12-31T09:05:10.338Z,13.5
2022-12-31T09:06:00.386Z,13.7
2022-12-31T09:07:01.851Z,13.7
2022-12-31T09:08:00.391Z,13.6
2022-12-31T09:09:00.389Z,13.6
2022-12-31T09:10:10.350Z,13.6
2022-12-31T09:11:00.411Z,13.6
2022-12-31T09:12:00.429Z,13.7
2022-12-31T09:13:06.935Z,13.7
2022-12-31T09:14:07.429Z,13.7
2022-12-31T09:15:01.403Z,13.7
2022-12-31T09:16:06.848Z,13.7
2022-12-31T09:17:09.893Z,13.8
2022-12-31T09:18:00.556Z,13.7
2022-12-31T09:19:00.455Z,13.7
2022-12-31T09:20:00.577Z,13.8
2022-12-31T09:21:00.489Z,13.8
2022-12-31T09:22:00.573Z,13.7
2022-12-31T09:23:00.933Z,13.7
2022-12-31T09:24:05.937Z,13.8
2022-12-31T09:25:00.438Z,13.8
2022-12-31T09:26:07.916Z,13.8
2022-12-31T09:27:04.826Z,13.8
2022-12-31T09:28:03.657Z,13.9
2022-12-31T09:29:03.720Z,13.9
2022-12-31T09:30:04.029Z,13.9
2022-12-31T09:31:05.318Z,13.9
2022-12-31T09:32:07.299Z,13.8
2022-12-31T09:33:06.138Z,13.8
2022-12-31T09:34:03.691Z,13.8
2022-12-31T09:35:05.192Z,13.8
2022-12-31T09:36:04.235Z,13.8
2022-12-31T09:37:04.188Z,13.8
2022-12-31T09:38:11.910Z,13.8
2022-12-31T09:39:10.318Z,13.8
2022-12-31T09:40:09.331Z,13.8
2022-12-31T09:41:10.321Z,13.8
2022-12-31T09:42:01.393Z,13.7
2022-12-31T09:43:10.316Z,13.7
2022-12-31T09:44:10.333Z,13.7
2022-12-31T09:45:10.349Z,13.7
2022-12-31T09:46:08.755Z,13.6
2022-12-31T09:47:10.342Z,13.6
2022-12-31T09:48:00.397Z,13.6
2022-12-31T09:49:01.413Z,13.6
2022-12-31T09:50:10.340Z,13.7
2022-12-31T09:51:00.394Z,13.7
2022-12-31T09:52:10.315Z,13.7
2022-12-31T09:53:09.338Z,13.7
2022-12-31T09:54:10.311Z,13.7
2022-12-31T09:55:01.441Z,13.7
2022-12-31T09:56:09.314Z,13.8
2022-12-31T09:57:10.343Z,13.8
2022-12-31T09:58:10.361Z,13.9
2022-12-31T09:59:10.340Z,13.9
2022-12-31T10:00:07.728Z,13.9
2022-12-31T10:01:09.602Z,13.9
2022-12-31T10:02:10.451Z,13.9
2022-12-31T10:03:10.336Z,13.9
2022-12-31T10:04:01.419Z,13.9
2022-12-31T10:05:10.358Z,13.9
2022-12-31T10:06:10.342Z,13.9
2022-12-31T10:07:08.692Z,13.9
2022-12-31T10:08:03.640Z,13.9
2022-12-31T10:09:07.874Z,13.9
2022-12-31T10:10:07.739Z,14.0
2022-12-31T10:11:10.344Z,14.0
2022-12-31T10:12:10.322Z,14.0
2022-12-31T10:13:00.364Z,14.0
2022-12-31T10:14:10.360Z,14.0
2022-12-31T10:15:03.665Z,14.0
2022-12-31T10:16:04.860Z,14.1
2022-12-31T10:17:03.714Z,14.1
2022-12-31T10:18:10.319Z,14.1
2022-12-31T10:19:07.920Z,14.1
2022-12-31T10:20:10.316Z,14.1
2022-12-31T10:21:05.383Z,14.1
2022-12-31T10:22:10.314Z,14.1
2022-12-31T10:23:00.377Z,14.1
2022-12-31T10:24:10.325Z,14.1
2022-12-31T10:25:00.390Z,14.1
2022-12-31T10:26:01.417Z,14.0
2022-12-31T10:27:03.638Z,14.0
2022-12-31T10:28:10.313Z,14.0
2022-12-31T10:29:08.677Z,14.0
2022-12-31T10:30:10.357Z,14.0
2022-12-31T10:31:10.395Z,14.0
2022-12-31T10:32:10.341Z,14.0
2022-12-31T10:33:10.315Z,14.0
2022-12-31T10:34:00.376Z,14.0
2022-12-31T10:35:10.343Z,14.0
2022-12-31T10:36:10.317Z,14.0
2022-12-31T10:37:05.271Z,14.0
2022-12-31T10:38:10.341Z,14.0
2022-12-31T10:39:12.859Z,14.0
2022-12-31T10:40:07.732Z,14.0
2022-12-31T10:41:00.375Z,14.0
2022-12-31T10:42:07.739Z,13.9
2022-12-31T10:43:10.340Z,13.9
2022-12-31T10:44:03.661Z,14.0
2022-12-31T10:45:10.350Z,14.0
2022-12-31T10:46:00.382Z,14.1
2022-12-31T10:47:10.346Z,14.1
2022-12-31T10:48:00.392Z,14.2
2022-12-31T10:49:01.393Z,14.2
2022-12-31T10:50:10.345Z,14.1
2022-12-31T10:51:10.337Z,14.1
2022-12-31T10:52:10.328Z,14.1
2022-12-31T10:53:10.343Z,14.1
2022-12-31T10:54:10.343Z,14.1
2022-12-31T10:55:10.345Z,14.1
2022-12-31T10:56:10.339Z,14.1
2022-12-31T10:57:10.312Z,14.1
2022-12-31T10:58:04.514Z,14.2
2022-12-31T10:59:07.904Z,14.2
2022-12-31T11:00:06.096Z,14.1
2022-12-31T11:01:10.480Z,14.1
2022-12-31T11:02:10.517Z,14.1
2022-12-31T11:03:00.469Z,14.1
2022-12-31T11:04:10.344Z,14.2
2022-12-31T11:05:10.325Z,14.2
2022-12-31T11:06:10.313Z,14.2
2022-12-31T11:07:03.648Z,14.2
2022-12-31T11:08:07.174Z,14.2
2022-12-31T11:09:10.342Z,14.2
2022-12-31T11:10:00.377Z,14.1
2022-12-31T11:11:00.400Z,14.1
2022-12-31T11:12:10.315Z,14.1
2022-12-31T11:13:10.348Z,14.1
2022-12-31T11:14:10.339Z,14.1
2022-12-31T11:15:10.312Z,14.1
2022-12-31T11:16:08.775Z,14.0
2022-12-31T11:17:09.255Z,14.0
2022-12-31T11:18:00.395Z,14.1
2022-12-31T11:19:10.351Z,14.1
2022-12-31T11:20:10.353Z,14.2
2022-12-31T11:21:10.330Z,14.2
2022-12-31T11:22:00.387Z,14.2
2022-12-31T11:23:08.833Z,14.2
2022-12-31T11:24:04.724Z,14.2
2022-12-31T11:25:10.356Z,14.2
2022-12-31T11:26:00.396Z,14.2
2022-12-31T11:27:10.347Z,14.2
2022-12-31T11:28:07.715Z,14.1
2022-12-31T11:29:10.311Z,14.1
2022-12-31T11:30:03.888Z,14.2
2022-12-31T11:31:00.434Z,14.2
2022-12-31T11:32:00.398Z,14.2
2022-12-31T11:33:10.341Z,14.2
2022-12-31T11:34:10.347Z,14.1
2022-12-31T11:35:10.311Z,14.1
2022-12-31T11:36:10.348Z,14.1
2022-12-31T11:37:10.335Z,14.1
2022-12-31T11:38:08.909Z,14.2
2022-12-31T11:39:10.315Z,14.2
2022-12-31T11:41:04.310Z,14.1
2022-12-31T11:42:10.488Z,14.2
2022-12-31T11:43:10.484Z,14.2
2022-12-31T11:44:10.520Z,14.2
2022-12-31T11:45:10.507Z,14.2
2022-12-31T11:46:08.058Z,14.3
2022-12-31T11:47:01.558Z,14.3
2022-12-31T11:48:31.027Z,14.3
2022-12-31T11:49:10.508Z,14.3
2022-12-31T11:50:10.504Z,14.2
2022-12-31T11:51:08.045Z,14.2
2022-12-31T11:56:10.370Z,14.1
2022-12-31T11:57:03.829Z,14.1
2022-12-31T11:58:08.906Z,14.1
2022-12-31T11:59:04.788Z,14.1
2022-12-31T12:00:03.619Z,14.1
2022-12-31T12:01:00.674Z,14.1
2022-12-31T12:02:05.353Z,14.3
2022-12-31T12:03:02.534Z,14.3
2022-12-31T12:04:01.212Z,14.2
2022-12-31T12:05:10.088Z,14.2
2022-12-31T12:06:00.620Z,14.2
2022-12-31T12:07:00.586Z,14.2
2022-12-31T12:08:00.830Z,14.2
2022-12-31T12:09:03.331Z,14.2
2022-12-31T12:10:10.417Z,14.2
2022-12-31T12:11:10.520Z,14.2
2022-12-31T12:12:02.879Z,14.2
2022-12-31T12:13:08.790Z,14.2
2022-12-31T12:14:00.602Z,14.2
2022-12-31T12:15:05.596Z,14.2
2022-12-31T12:16:02.119Z,14.0
2022-12-31T12:17:05.102Z,14.0
2022-12-31T12:18:06.943Z,14.1
2022-12-31T12:19:00.570Z,14.1
2022-12-31T12:20:02.713Z,14.2
2022-12-31T12:21:04.692Z,14.2
2022-12-31T12:22:08.663Z,14.1
2022-12-31T12:23:01.804Z,14.1
2022-12-31T12:24:05.641Z,14.1
2022-12-31T12:25:04.201Z,14.1
2022-12-31T12:26:00.755Z,14.0
2022-12-31T12:27:00.606Z,14.0
2022-12-31T12:28:10.129Z,14.1
2022-12-31T12:29:09.180Z,14.1
2022-12-31T12:30:08.723Z,14.1
2022-12-31T12:31:03.627Z,14.1
2022-12-31T12:32:05.186Z,14.0
2022-12-31T12:33:01.377Z,14.0
2022-12-31T12:34:00.616Z,14.0
2022-12-31T12:35:00.605Z,14.0
2022-12-31T12:36:05.487Z,14.0
2022-12-31T12:37:00.683Z,14.0
2022-12-31T12:38:02.123Z,14.1
2022-12-31T12:39:01.817Z,14.1
2022-12-31T12:40:02.446Z,14.0
2022-12-31T12:41:06.302Z,14.0
2022-12-31T12:42:01.869Z,14.1
2022-12-31T12:43:01.427Z,14.1
2022-12-31T12:44:01.874Z,14.1
2022-12-31T12:45:01.609Z,14.1
2022-12-31T12:46:02.569Z,14.1
2022-12-31T12:47:03.907Z,14.1
2022-12-31T12:48:01.917Z,14.0
2022-12-31T12:49:01.574Z,14.0
2022-12-31T12:50:01.960Z,14.1
2022-12-31T12:51:05.383Z,14.1
2022-12-31T12:52:10.544Z,14.1
2022-12-31T12:53:03.844Z,14.1
2022-12-31T12:54:03.854Z,14.1
2022-12-31T12:55:01.614Z,14.1
2022-12-31T12:56:10.545Z,14.1
2022-12-31T12:57:08.308Z,14.1
2022-12-31T12:58:14.121Z,14.1
2022-12-31T12:59:01.612Z,14.1
2022-12-31T13:00:03.278Z,14.2
2022-12-31T13:01:08.095Z,14.2
2022-12-31T13:02:10.576Z,14.1
2022-12-31T13:03:10.125Z,14.1
2022-12-31T13:04:33.431Z,14.2
2022-12-31T13:05:06.980Z,14.2
2022-12-31T13:06:01.589Z,14.1
2022-12-31T13:07:06.772Z,14.1
2022-12-31T13:08:10.521Z,14.2
2022-12-31T13:09:07.827Z,14.2
2022-12-31T13:10:09.391Z,14.2
2022-12-31T13:11:00.567Z,14.2
2022-12-31T13:12:10.538Z,14.3
2022-12-31T13:13:24.884Z,14.3
2022-12-31T13:14:08.668Z,14.3
2022-12-31T13:15:08.069Z,14.3
2022-12-31T13:16:06.118Z,14.4
2022-12-31T13:17:10.545Z,14.4
2022-12-31T13:18:10.563Z,14.3
2022-12-31T13:19:10.578Z,14.3
2022-12-31T13:20:04.294Z,14.2
2022-12-31T13:21:10.546Z,14.2
2022-12-31T13:22:07.128Z,14.3
2022-12-31T13:23:10.541Z,14.3
2022-12-31T13:24:06.362Z,14.2
2022-12-31T13:25:03.828Z,14.2
2022-12-31T13:26:08.893Z,14.3
2022-12-31T13:27:03.847Z,14.3